Time;durP1;ratioP1;P1;durP2;ratioP2;P2;SDS_P1;SDS_P2;PMS_P1;PMS_P2;Temp;Humidity;BMP_temperature;BMP_pressure;BME280_temperature;BME280_humidity;BME280_pressure;Samples;Min_cycle;Max_cycle;Signal;HPM_P1;HPM_P2
2022/04/30 00:00:12;;;;;;;14.32;12.82;;;;;;;;;;6247716;23;20328;-81
2022/04/30 00:02:40;;;;;;;15.82;14.23;;;;;;;;;;6247643;23;20437;-83
2022/04/30 00:05:06;;;;;;;15.25;12.90;;;;;;;;;;6247629;23;20023;-80
2022/04/30 00:07:32;;;;;;;17.02;13.43;;;;;;;;;;6247712;23;19996;-81
2022/04/30 00:09:58;;;;;;;16.83;13.18;;;;;;;;;;6247683;23;20502;-81
2022/04/30 00:12:26;;;;;;;15.90;13.35;;;;;;;;;;6247750;23;20000;-80
2022/04/30 00:14:55;;;;;;;16.90;14.85;;;;;;;;;;6247483;23;20008;-79
2022/04/30 00:17:21;;;;;;;14.98;13.40;;;;;;;;;;6247530;23;19996;-79
2022/04/30 00:19:47;;;;;;;15.30;12.95;;;;;;;;;;6247750;23;20000;-79
2022/04/30 00:22:13;;;;;;;14.95;12.10;;;;;;;;;;6247561;23;20004;-80
2022/04/30 00:24:39;;;;;;;12.20;11.00;;;;;;;;;;6247491;23;20000;-81
2022/04/30 00:27:06;;;;;;;11.95;10.75;;;;;;;;;;6247504;23;20067;-79
2022/04/30 00:29:32;;;;;;;12.32;10.95;;;;;;;;;;6247569;23;20011;-81
2022/04/30 00:32:01;;;;;;;12.15;10.60;;;;;;;;;;6220223;23;20071;-80
2022/04/30 00:34:27;;;;;;;11.35;10.18;;;;;;;;;;6247517;23;20027;-80
2022/04/30 00:36:56;;;;;;;12.30;11.07;;;;;;;;;;6247452;23;19996;-80
2022/04/30 00:39:23;;;;;;;13.00;11.60;;;;;;;;;;6247957;23;20102;-82
2022/04/30 00:41:49;;;;;;;11.20;10.07;;;;;;;;;;6247424;23;20010;-80
2022/04/30 00:44:22;;;;;;;11.75;10.15;;;;;;;;;;6247240;23;20355;-80
2022/04/30 00:46:48;;;;;;;12.60;11.27;;;;;;;;;;6247266;23;20420;-79
2022/04/30 00:49:14;;;;;;;13.63;11.15;;;;;;;;;;6246967;23;20004;-80
2022/04/30 00:51:41;;;;;;;11.60;10.40;;;;;;;;;;6247282;23;20000;-81
2022/04/30 00:54:08;;;;;;;13.18;11.07;;;;;;;;;;6220300;23;20455;-81
2022/04/30 00:56:35;;;;;;;12.85;11.52;;;;;;;;;;6247278;23;20320;-79
2022/04/30 00:59:03;;;;;;;12.80;10.85;;;;;;;;;;6247116;23;20000;-81
2022/04/30 01:01:32;;;;;;;15.80;11.93;;;;;;;;;;6247151;23;20074;-79
2022/04/30 01:03:58;;;;;;;15.05;12.90;;;;;;;;;;6247101;23;20011;-81
2022/04/30 01:06:50;;;;;;;13.32;11.93;;;;;;;;;;6247376;23;20027;-81
2022/04/30 01:09:21;;;;;;;16.02;13.13;;;;;;;;;;6233754;23;20011;-81
2022/04/30 01:11:49;;;;;;;15.77;14.07;;;;;;;;;;6246908;23;20023;-81
2022/04/30 01:14:17;;;;;;;16.48;14.30;;;;;;;;;;6247012;23;20023;-80
2022/04/30 01:16:44;;;;;;;16.50;13.75;;;;;;;;;;6247096;23;20011;-82
2022/04/30 01:19:13;;;;;;;17.90;15.00;;;;;;;;;;6246859;23;20004;-83
2022/04/30 01:21:42;;;;;;;15.43;12.27;;;;;;;;;;6246941;23;19996;-79
2022/04/30 01:24:08;;;;;;;16.88;15.05;;;;;;;;;;6246833;23;20502;-81
2022/04/30 01:26:34;;;;;;;19.27;14.65;;;;;;;;;;6247192;23;20003;-80
2022/04/30 01:29:00;;;;;;;22.33;18.50;;;;;;;;;;6246833;23;20007;-81
2022/04/30 01:39:40;;;;;;;18.77;15.45;;;;;;;;;;6247293;23;20091;-82
2022/04/30 01:42:16;;;;;;;15.35;13.55;;;;;;;;;;6246666;23;20000;-81
2022/04/30 01:44:46;;;;;;;15.82;13.95;;;;;;;;;;6246667;23;19996;-81
2022/04/30 01:47:13;;;;;;;16.92;13.95;;;;;;;;;;6246551;23;20000;-82
2022/04/30 01:49:39;;;;;;;17.13;15.27;;;;;;;;;;6246727;23;20000;-83
2022/04/30 01:52:09;;;;;;;16.00;13.73;;;;;;;;;;6246537;23;20000;-83
2022/04/30 01:54:35;;;;;;;15.88;13.60;;;;;;;;;;6246495;23;20019;-83
2022/04/30 01:57:01;;;;;;;14.88;12.70;;;;;;;;;;6246563;23;19996;-83
2022/04/30 01:59:28;;;;;;;15.63;14.00;;;;;;;;;;6246629;23;20000;-84
2022/04/30 02:01:57;;;;;;;15.77;14.07;;;;;;;;;;6246517;23;20067;-83
2022/04/30 02:04:24;;;;;;;15.68;13.30;;;;;;;;;;6246535;23;20001;-81
2022/04/30 02:06:53;;;;;;;14.23;12.73;;;;;;;;;;6246482;23;20432;-81
2022/04/30 02:09:19;;;;;;;14.20;12.70;;;;;;;;;;6246669;23;20431;-81
2022/04/30 02:11:46;;;;;;;14.48;12.88;;;;;;;;;;6246344;23;20000;-83
2022/04/30 02:14:13;;;;;;;15.68;13.77;;;;;;;;;;6246475;23;20000;-81
2022/04/30 02:16:41;;;;;;;14.23;12.73;;;;;;;;;;6246592;23;20012;-85
2022/04/30 02:19:07;;;;;;;13.02;11.68;;;;;;;;;;6246373;23;20004;-84
2022/04/30 02:21:33;;;;;;;11.95;10.63;;;;;;;;;;6246420;23;19997;-83
2022/04/30 02:24:00;;;;;;;12.25;10.57;;;;;;;;;;6246329;23;20004;-82
2022/04/30 02:26:27;;;;;;;12.30;11.00;;;;;;;;;;6246282;23;20428;-82
2022/04/30 02:28:57;;;;;;;12.40;10.70;;;;;;;;;;6246363;23;20011;-83
2022/04/30 02:31:27;;;;;;;11.43;10.23;;;;;;;;;;6246287;23;20004;-83
2022/04/30 02:33:56;;;;;;;11.38;9.77;;;;;;;;;;6246299;23;20511;-80
2022/04/30 02:36:25;;;;;;;12.45;11.15;;;;;;;;;;6218933;23;20440;-82
2022/04/30 02:38:53;;;;;;;14.95;12.23;;;;;;;;;;6246443;23;20007;-83
2022/04/30 02:41:21;;;;;;;13.70;12.30;;;;;;;;;;6246307;23;20059;-81
2022/04/30 02:43:47;;;;;;;15.75;13.73;;;;;;;;;;6246223;23;20000;-84
2022/04/30 02:46:35;;;;;;;15.10;13.60;;;;;;;;;;6246218;23;20151;-82
2022/04/30 02:52:31;;;;;;;13.02;11.68;;;;;;;;;;6245982;23;20340;-84
2022/04/30 02:55:23;;;;;;;13.07;11.77;;;;;;;;;;6245826;23;20014;-83
2022/04/30 03:00:40;;;;;;;14.18;11.52;;;;;;;;;;6246167;23;20011;-82
2022/04/30 03:03:07;;;;;;;13.38;11.93;;;;;;;;;;6246280;23;20054;-82
2022/04/30 03:05:35;;;;;;;12.38;11.07;;;;;;;;;;6246080;23;20313;-80
2022/04/30 03:08:01;;;;;;;12.27;10.55;;;;;;;;;;6219189;23;20087;-80
2022/04/30 03:10:27;;;;;;;11.90;10.70;;;;;;;;;;6246003;23;20050;-81
2022/04/30 03:12:53;;;;;;;14.38;12.75;;;;;;;;;;6245866;23;20002;-81
2022/04/30 03:15:22;;;;;;;13.18;11.77;;;;;;;;;;6246102;23;20054;-80
2022/04/30 03:23:19;;;;;;;29.50;25.55;;;;;;;;;;6245904;23;20019;-81
2022/04/30 03:25:45;;;;;;;42.58;34.33;;;;;;;;;;6245766;23;20333;-81
2022/04/30 03:28:11;;;;;;;26.55;22.88;;;;;;;;;;6245804;23;19996;-84
2022/04/30 03:30:37;;;;;;;31.63;25.35;;;;;;;;;;6218743;23;20016;-83
2022/04/30 03:33:04;;;;;;;17.17;15.35;;;;;;;;;;6245505;23;20004;-82
2022/04/30 03:35:30;;;;;;;15.25;13.48;;;;;;;;;;6245770;23;20008;-81
2022/04/30 03:37:56;;;;;;;14.35;12.93;;;;;;;;;;6245900;23;20019;-81
2022/04/30 03:40:24;;;;;;;14.02;12.63;;;;;;;;;;6245884;23;20353;-81
2022/04/30 03:42:50;;;;;;;15.13;13.27;;;;;;;;;;6245804;23;19999;-81
2022/04/30 03:45:17;;;;;;;16.50;13.50;;;;;;;;;;6218768;23;20023;-81
2022/04/30 03:47:43;;;;;;;14.32;12.82;;;;;;;;;;6245557;23;20119;-83
2022/04/30 03:50:09;;;;;;;15.75;13.98;;;;;;;;;;6218853;23;20004;-84
2022/04/30 03:52:39;;;;;;;15.75;14.05;;;;;;;;;;6245474;23;20110;-83
2022/04/30 03:55:09;;;;;;;15.15;13.43;;;;;;;;;;6245390;23;20042;-84
2022/04/30 03:57:35;;;;;;;14.98;12.70;;;;;;;;;;6245619;23;20395;-80
2022/04/30 04:00:10;;;;;;;16.00;14.35;;;;;;;;;;6245682;23;20020;-80
2022/04/30 04:02:39;;;;;;;17.05;13.88;;;;;;;;;;6245726;23;20093;-81
2022/04/30 04:05:06;;;;;;;16.15;13.38;;;;;;;;;;6246254;23;19996;-80
2022/04/30 04:07:33;;;;;;;13.95;12.55;;;;;;;;;;6247697;23;19996;-82
2022/04/30 04:09:59;;;;;;;15.73;14.13;;;;;;;;;;6247632;23;20000;-80
2022/04/30 04:12:25;;;;;;;13.73;12.35;;;;;;;;;;6247520;23;20494;-84
2022/04/30 04:17:39;;;;;;;;;;;;;;;;;;6248235;23;20463;-84
2022/04/30 04:20:05;;;;;;;15.98;14.27;;;;;;;;;;6247579;23;20311;-83
2022/04/30 04:22:31;;;;;;;15.45;13.85;;;;;;;;;;6247658;23;20001;-83
2022/04/30 04:27:42;;;;;;;16.00;13.45;;;;;;;;;;6247588;23;20505;-83
2022/04/30 04:30:09;;;;;;;15.98;14.23;;;;;;;;;;6247590;23;20023;-82
2022/04/30 04:32:35;;;;;;;15.52;13.70;;;;;;;;;;6247363;23;20046;-82
2022/04/30 04:35:01;;;;;;;15.98;14.27;;;;;;;;;;6247576;23;20049;-82
2022/04/30 04:37:27;;;;;;;15.60;13.73;;;;;;;;;;6247505;23;20379;-83
2022/04/30 04:39:55;;;;;;;16.17;14.32;;;;;;;;;;6247875;23;20008;-83
2022/04/30 04:42:21;;;;;;;18.15;16.25;;;;;;;;;;6247479;23;20011;-84
2022/04/30 04:44:48;;;;;;;14.13;12.18;;;;;;;;;;6247273;23;20006;-80
2022/04/30 04:47:14;;;;;;;13.55;11.73;;;;;;;;;;6247543;23;20297;-84
2022/04/30 04:49:41;;;;;;;13.07;11.07;;;;;;;;;;6247328;23;20001;-82
2022/04/30 04:52:10;;;;;;;15.27;13.70;;;;;;;;;;6247117;23;20027;-82
2022/04/30 04:54:36;;;;;;;14.65;13.13;;;;;;;;;;6246994;23;20008;-84
2022/04/30 04:57:02;;;;;;;12.05;10.80;;;;;;;;;;6247178;23;20408;-83
2022/04/30 04:59:28;;;;;;;11.10;9.93;;;;;;;;;;6247213;23;20079;-82
2022/04/30 05:01:54;;;;;;;14.50;12.02;;;;;;;;;;6247110;23;20007;-82
2022/04/30 05:04:21;;;;;;;13.27;11.88;;;;;;;;;;6247246;23;19996;-83
2022/04/30 05:06:51;;;;;;;15.63;13.00;;;;;;;;;;6247150;23;19997;-86
2022/04/30 05:09:20;;;;;;;15.88;12.68;;;;;;;;;;6247196;23;20087;-84
2022/04/30 05:11:46;;;;;;;11.35;9.90;;;;;;;;;;6247031;23;19996;-84
2022/04/30 05:14:12;;;;;;;13.55;11.35;;;;;;;;;;6246880;23;20008;-84
2022/04/30 05:16:38;;;;;;;12.63;10.93;;;;;;;;;;6246863;23;20008;-83
2022/04/30 05:19:05;;;;;;;12.70;11.40;;;;;;;;;;6247091;23;20035;-82
2022/04/30 05:21:32;;;;;;;12.38;10.57;;;;;;;;;;6220036;23;20083;-84
2022/04/30 05:24:00;;;;;;;10.95;9.80;;;;;;;;;;6220082;23;20004;-85
2022/04/30 05:26:39;;;;;;;;;;;;;;;;;;;;;
2022/04/30 05:29:06;;;;;;;11.27;10.15;;;;;;;;;;6245577;23;20088;-84
2022/04/30 05:31:32;;;;;;;13.43;12.05;;;;;;;;;;6245957;23;20420;-83
2022/04/30 05:34:03;;;;;;;12.40;10.90;;;;;;;;;;6218420;23;20467;-83
2022/04/30 05:36:29;;;;;;;10.45;9.30;;;;;;;;;;6219173;23;20310;-86
2022/04/30 05:38:55;;;;;;;10.77;9.68;;;;;;;;;;6246346;23;20000;-83
2022/04/30 05:41:23;;;;;;;13.05;11.70;;;;;;;;;;6218648;23;20012;-86
2022/04/30 05:43:49;;;;;;;12.10;10.63;;;;;;;;;;6246022;23;20432;-86
2022/04/30 05:46:18;;;;;;;12.80;10.82;;;;;;;;;;6245675;23;20062;-87
2022/04/30 05:48:51;;;;;;;10.77;9.52;;;;;;;;;;6245598;23;20004;-86
2022/04/30 05:51:17;;;;;;;11.47;10.27;;;;;;;;;;6246044;23;20071;-84
2022/04/30 05:53:43;;;;;;;12.13;10.85;;;;;;;;;;6245752;23;20012;-87
2022/04/30 05:56:10;;;;;;;10.75;9.65;;;;;;;;;;6218426;23;20123;-85
2022/04/30 05:58:36;;;;;;;13.10;10.60;;;;;;;;;;6245678;23;20078;-87
2022/04/30 06:01:03;;;;;;;10.63;9.35;;;;;;;;;;6220050;23;20000;-85
2022/04/30 06:03:31;;;;;;;11.15;9.68;;;;;;;;;;6220076;23;20015;-86
2022/04/30 06:05:57;;;;;;;11.50;10.30;;;;;;;;;;6219741;23;20092;-88
2022/04/30 06:08:24;;;;;;;12.60;11.15;;;;;;;;;;6246632;23;20003;-88
2022/04/30 06:10:50;;;;;;;11.95;10.10;;;;;;;;;;6246455;23;20058;-86
2022/04/30 06:13:16;;;;;;;11.48;10.27;;;;;;;;;;6246523;23;20570;-87
2022/04/30 06:15:44;;;;;;;12.10;10.80;;;;;;;;;;6219541;23;20432;-88
2022/04/30 06:18:11;;;;;;;13.00;10.82;;;;;;;;;;6219584;23;20055;-87
2022/04/30 06:20:57;;;;;;;13.10;11.23;;;;;;;;;;6219739;23;20054;-86
2022/04/30 06:23:23;;;;;;;12.57;10.70;;;;;;;;;;6219673;23;20008;-87
2022/04/30 06:29:03;;;;;;;12.07;10.88;;;;;;;;;;6230269;23;20065;-87
2022/04/30 06:31:51;;;;;;;11.37;9.77;;;;;;;;;;6246434;23;19996;-86
2022/04/30 06:34:16;;;;;;;11.45;10.32;;;;;;;;;;6244355;23;20016;-90
2022/04/30 06:36:49;;;;;;;12.60;11.30;;;;;;;;;;6218300;23;20008;-87
2022/04/30 06:39:15;;;;;;;12.17;10.90;;;;;;;;;;6218758;23;20083;-88
2022/04/30 06:41:42;;;;;;;10.85;9.77;;;;;;;;;;6245660;23;20011;-86
2022/04/30 06:44:08;;;;;;;11.90;10.57;;;;;;;;;;6218596;23;20010;-90
2022/04/30 06:46:34;;;;;;;12.38;10.70;;;;;;;;;;6218403;23;20137;-88
2022/04/30 06:49:14;;;;;;;;;;;;;;;;;;;;;
2022/04/30 06:51:49;;;;;;;13.52;11.57;;;;;;;;;;6243156;23;20083;-89
2022/04/30 06:59:45;;;;;;;;;;;;;;;;;;6245821;23;20015;-86
2022/04/30 07:02:18;;;;;;;12.38;11.07;;;;;;;;;;6218969;23;19906;-88
2022/04/30 07:04:46;;;;;;;11.82;10.70;;;;;;;;;;6245438;23;20000;-85
2022/04/30 07:07:13;;;;;;;11.43;10.32;;;;;;;;;;6245094;23;20004;-85
2022/04/30 07:09:39;;;;;;;11.40;10.27;;;;;;;;;;6245350;23;20000;-85
2022/04/30 07:12:07;;;;;;;11.45;10.25;;;;;;;;;;6218494;23;20305;-84
2022/04/30 07:14:37;;;;;;;12.02;10.82;;;;;;;;;;6218312;23;19992;-86
2022/04/30 07:17:09;;;;;;;11.48;10.38;;;;;;;;;;6244590;23;20379;-87
2022/04/30 07:19:35;;;;;;;12.20;11.00;;;;;;;;;;6245548;23;20504;-85
2022/04/30 07:22:02;;;;;;;11.43;10.35;;;;;;;;;;6244727;23;20371;-87
2022/04/30 07:24:29;;;;;;;12.23;10.88;;;;;;;;;;6245381;23;20008;-83
2022/04/30 07:27:26;;;;;;;;;;;;;;;;;;;;;
2022/04/30 07:29:41;;;;;;;11.18;9.95;;;;;;;;;;6237758;23;20016;-85
2022/04/30 07:32:08;;;;;;;11.38;10.10;;;;;;;;;;6245372;23;20036;-89
2022/04/30 07:34:35;;;;;;;11.75;10.27;;;;;;;;;;6250370;23;20004;-89
2022/04/30 07:37:01;;;;;;;12.23;11.05;;;;;;;;;;6245769;23;20000;-88
2022/04/30 07:39:27;;;;;;;12.32;11.13;;;;;;;;;;6220447;23;20058;-85
2022/04/30 07:41:54;;;;;;;10.93;9.82;;;;;;;;;;6247387;23;20566;-83
2022/04/30 07:44:22;;;;;;;11.75;10.40;;;;;;;;;;6220895;23;20004;-84
2022/04/30 07:46:48;;;;;;;11.52;10.30;;;;;;;;;;6221187;23;19998;-85
2022/04/30 07:49:14;;;;;;;12.18;10.95;;;;;;;;;;6220810;23;20054;-87
2022/04/30 07:54:25;;;;;;;11.35;10.18;;;;;;;;;;6247800;23;20030;-81
2022/04/30 07:56:55;;;;;;;11.15;8.70;;;;;;;;;;6247535;23;20008;-89
2022/04/30 07:59:21;;;;;;;11.45;10.32;;;;;;;;;;6247466;23;20004;-85
2022/04/30 08:01:48;;;;;;;9.80;8.80;;;;;;;;;;6247139;23;19997;-84
2022/04/30 08:04:14;;;;;;;9.73;8.82;;;;;;;;;;6219984;23;20294;-85
2022/04/30 08:06:40;;;;;;;11.18;9.55;;;;;;;;;;6246978;23;20091;-82
2022/04/30 08:09:06;;;;;;;11.20;10.10;;;;;;;;;;6247112;23;20008;-82
2022/04/30 08:11:33;;;;;;;9.70;8.70;;;;;;;;;;6218326;23;20000;-85
2022/04/30 08:13:59;;;;;;;10.65;9.55;;;;;;;;;;6246319;23;20016;-84
2022/04/30 08:16:45;;;;;;;10.32;9.30;;;;;;;;;;6219915;23;20061;-83
2022/04/30 08:19:11;;;;;;;10.85;9.77;;;;;;;;;;6246479;23;20004;-87
2022/04/30 08:21:38;;;;;;;11.75;10.65;;;;;;;;;;6247327;23;20004;-84
2022/04/30 08:24:12;;;;;;;12.50;11.30;;;;;;;;;;6246762;23;20432;-84
2022/04/30 08:29:45;;;;;;;11.52;10.32;;;;;;;;;;6191035;23;21304;-83
2022/04/30 08:32:15;;;;;;;10.85;9.65;;;;;;;;;;6245880;23;20370;-82
2022/04/30 08:34:42;;;;;;;11.68;10.57;;;;;;;;;;6246646;23;20008;-83
2022/04/30 08:37:08;;;;;;;10.60;9.52;;;;;;;;;;6245981;23;20004;-83
2022/04/30 08:39:37;;;;;;;11.35;10.23;;;;;;;;;;6219014;23;20383;-84
2022/04/30 08:42:06;;;;;;;10.32;9.23;;;;;;;;;;6245980;23;20008;-81
2022/04/30 08:44:35;;;;;;;11.85;10.23;;;;;;;;;;6246490;23;20023;-86
2022/04/30 08:47:01;;;;;;;11.00;9.70;;;;;;;;;;6219501;23;20420;-82
2022/04/30 08:49:27;;;;;;;11.43;10.23;;;;;;;;;;6245939;23;20004;-82
2022/04/30 08:51:56;;;;;;;10.00;9.00;;;;;;;;;;6245626;23;19996;-84
2022/04/30 08:54:22;;;;;;;10.80;9.40;;;;;;;;;;6219248;23;20019;-81
2022/04/30 08:56:55;;;;;;;12.25;9.80;;;;;;;;;;6246395;23;20332;-81
2022/04/30 08:59:22;;;;;;;11.40;9.83;;;;;;;;;;6246282;23;20151;-85
2022/04/30 09:01:49;;;;;;;10.70;9.68;;;;;;;;;;6246921;23;20012;-84
2022/04/30 09:04:15;;;;;;;9.70;8.70;;;;;;;;;;6219106;23;20012;-83
2022/04/30 09:07:00;;;;;;;9.20;8.30;;;;;;;;;;6246026;23;20028;-87
2022/04/30 09:12:13;;;;;;;8.88;7.72;;;;;;;;;;6245331;23;20035;-80
2022/04/30 09:14:43;;;;;;;8.75;7.85;;;;;;;;;;6219211;23;20396;-82
2022/04/30 09:17:09;;;;;;;9.60;8.70;;;;;;;;;;6245971;23;20004;-84
2022/04/30 09:19:54;;;;;;;10.18;8.48;;;;;;;;;;6218968;23;20348;-82
2022/04/30 09:22:33;;;;;;;8.90;8.00;;;;;;;;;;6245679;23;20011;-86
2022/04/30 09:25:01;;;;;;;8.90;8.02;;;;;;;;;;6246171;23;20047;-84
2022/04/30 09:27:28;;;;;;;16.23;14.32;;;;;;;;;;6246179;23;20443;-86
2022/04/30 09:29:54;;;;;;;8.77;7.90;;;;;;;;;;6246660;23;20336;-81
2022/04/30 09:32:22;;;;;;;10.70;8.80;;;;;;;;;;6245911;23;20085;-86
2022/04/30 09:37:42;;;;;;;10.02;9.00;;;;;;;;;;6245414;23;20507;-84
2022/04/30 09:40:31;;;;;;;10.00;7.22;;;;;;;;;;6245515;23;20008;-84
2022/04/30 09:42:58;;;;;;;11.05;8.13;;;;;;;;;;6209296;23;20011;-85
2022/04/30 09:45:31;;;;;;;9.40;8.48;;;;;;;;;;6245733;23;20053;-85
2022/04/30 09:47:58;;;;;;;8.77;7.78;;;;;;;;;;6219115;23;20000;-82
2022/04/30 09:55:57;;;;;;;11.95;8.13;;;;;;;;;;6244504;23;20455;-84
2022/04/30 09:58:24;;;;;;;9.77;8.15;;;;;;;;;;6245365;23;20004;-85
2022/04/30 10:00:52;;;;;;;7.53;6.63;;;;;;;;;;6245851;23;20011;-80
2022/04/30 10:03:19;;;;;;;8.43;7.53;;;;;;;;;;6244570;23;20054;-81
2022/04/30 10:05:45;;;;;;;7.80;7.00;;;;;;;;;;6245724;23;20062;-82
2022/04/30 10:08:11;;;;;;;9.00;8.10;;;;;;;;;;6245404;23;20012;-82
2022/04/30 10:10:51;;;;;;;8.77;7.97;;;;;;;;;;6245391;23;20004;-84
2022/04/30 10:13:23;;;;;;;8.93;8.02;;;;;;;;;;6244950;23;20004;-79
2022/04/30 10:15:57;;;;;;;9.23;8.32;;;;;;;;;;6244891;23;20432;-82
2022/04/30 10:18:33;;;;;;;9.55;7.32;;;;;;;;;;6244904;23;20000;-81
2022/04/30 10:21:00;;;;;;;7.65;6.65;;;;;;;;;;6245680;23;20378;-81
2022/04/30 10:23:26;;;;;;;6.50;5.47;;;;;;;;;;6218280;23;20004;-80
2022/04/30 10:25:54;;;;;;;7.82;6.10;;;;;;;;;;6245242;23;20054;-84
2022/04/30 10:28:23;;;;;;;6.78;5.93;;;;;;;;;;6243993;23;20061;-81
2022/04/30 10:30:59;;;;;;;6.97;6.18;;;;;;;;;;6244850;23;20086;-82
2022/04/30 10:33:26;;;;;;;7.57;6.85;;;;;;;;;;6217912;23;20015;-79
2022/04/30 10:36:03;;;;;;;7.88;5.78;;;;;;;;;;6245588;23;20010;-83
2022/04/30 10:38:29;;;;;;;8.90;6.80;;;;;;;;;;6244995;23;20070;-83
2022/04/30 10:41:14;;;;;;;7.35;6.63;;;;;;;;;;6245284;23;20000;-83
2022/04/30 10:43:40;;;;;;;6.95;6.30;;;;;;;;;;6245032;23;20034;-82
2022/04/30 10:46:18;;;;;;;7.43;6.35;;;;;;;;;;6245027;23;20440;-83
2022/04/30 10:48:44;;;;;;;8.13;5.47;;;;;;;;;;6244611;23;20004;-81
2022/04/30 10:51:31;;;;;;;5.65;5.10;;;;;;;;;;6245263;23;20075;-81
2022/04/30 10:53:58;;;;;;;5.45;4.93;;;;;;;;;;6245074;23;20077;-83
2022/04/30 10:56:28;;;;;;;6.10;5.45;;;;;;;;;;6244480;23;20508;-80
2022/04/30 10:58:54;;;;;;;7.72;6.53;;;;;;;;;;6244291;23;20015;-79
2022/04/30 11:01:21;;;;;;;7.95;6.40;;;;;;;;;;6245567;23;20474;-81
2022/04/30 11:03:48;;;;;;;9.57;6.65;;;;;;;;;;6218031;23;20054;-81
2022/04/30 11:06:20;;;;;;;7.05;6.38;;;;;;;;;;6245328;23;20043;-81
2022/04/30 11:09:00;;;;;;;6.15;5.55;;;;;;;;;;6244856;23;20012;-79
2022/04/30 11:11:26;;;;;;;5.82;5.20;;;;;;;;;;6218370;23;20363;-79
2022/04/30 11:13:58;;;;;;;7.28;5.43;;;;;;;;;;6245054;23;20015;-78
2022/04/30 11:16:35;;;;;;;5.63;4.55;;;;;;;;;;6245926;23;20007;-79
2022/04/30 11:19:10;;;;;;;7.22;5.55;;;;;;;;;;6247237;23;20011;-80
2022/04/30 11:21:37;;;;;;;5.93;5.32;;;;;;;;;;6246839;23;20074;-81
2022/04/30 11:24:04;;;;;;;7.13;6.50;;;;;;;;;;6246725;23;20015;-82
2022/04/30 11:26:30;;;;;;;6.28;5.55;;;;;;;;;;6247037;23;20008;-85
2022/04/30 11:29:01;;;;;;;6.32;4.93;;;;;;;;;;6220415;23;20005;-81
2022/04/30 11:31:27;;;;;;;5.97;4.90;;;;;;;;;;6246739;23;20454;-82
2022/04/30 11:33:53;;;;;;;7.30;4.88;;;;;;;;;;6246658;23;20019;-81
2022/04/30 11:36:20;;;;;;;5.85;4.57;;;;;;;;;;6246956;23;20008;-81
2022/04/30 11:38:53;;;;;;;7.10;5.30;;;;;;;;;;6194403;23;20011;-82
2022/04/30 11:41:19;;;;;;;5.22;4.70;;;;;;;;;;6247146;23;20004;-78
2022/04/30 11:43:45;;;;;;;6.38;5.10;;;;;;;;;;6246651;23;20004;-79
2022/04/30 11:46:11;;;;;;;7.30;5.25;;;;;;;;;;6245820;23;20108;-79
2022/04/30 11:48:40;;;;;;;10.40;5.90;;;;;;;;;;6246683;23;20004;-78
2022/04/30 11:51:07;;;;;;;7.45;5.90;;;;;;;;;;6246481;23;20420;-81
2022/04/30 11:53:34;;;;;;;9.50;6.47;;;;;;;;;;6246285;23;20087;-80
2022/04/30 11:56:01;;;;;;;6.20;5.38;;;;;;;;;;6246736;23;20016;-78
2022/04/30 11:58:27;;;;;;;5.90;5.30;;;;;;;;;;6246983;23;20000;-80
2022/04/30 12:00:53;;;;;;;7.72;6.63;;;;;;;;;;6245832;23;20036;-78
2022/04/30 12:03:28;;;;;;;9.63;8.57;;;;;;;;;;6246885;23;20008;-78
2022/04/30 12:05:56;;;;;;;18.70;16.23;;;;;;;;;;6246554;23;20494;-79
2022/04/30 12:08:27;;;;;;;6.75;5.80;;;;;;;;;;6246420;23;19997;-78
2022/04/30 12:10:57;;;;;;;5.78;4.93;;;;;;;;;;6246434;23;19996;-79
2022/04/30 12:13:24;;;;;;;6.47;4.97;;;;;;;;;;6246446;23;20011;-80
2022/04/30 12:16:11;;;;;;;5.80;5.22;;;;;;;;;;6219552;23;20087;-79
2022/04/30 12:27:10;;;;;;;21.77;19.15;;;;;;;;;;6245621;23;19989;-80
2022/04/30 12:29:37;;;;;;;8.43;7.63;;;;;;;;;;6246553;23;20489;-79
2022/04/30 12:32:04;;;;;;;16.95;15.27;;;;;;;;;;6218457;23;20336;-78
2022/04/30 12:34:37;;;;;;;7.20;5.85;;;;;;;;;;6246727;23;20004;-79
2022/04/30 12:37:03;;;;;;;26.98;24.20;;;;;;;;;;6246056;23;20006;-78
2022/04/30 12:39:29;;;;;;;51.05;41.78;;;;;;;;;;6246324;23;20034;-79
2022/04/30 12:41:59;;;;;;;29.50;26.50;;;;;;;;;;6246219;23;20007;-79
2022/04/30 12:44:25;;;;;;;13.25;10.73;;;;;;;;;;6246526;23;19992;-80
2022/04/30 12:46:51;;;;;;;5.82;4.90;;;;;;;;;;6246012;23;20000;-79
2022/04/30 12:49:18;;;;;;;7.20;4.85;;;;;;;;;;6246363;23;20000;-81
2022/04/30 12:51:44;;;;;;;3.88;3.53;;;;;;;;;;6246357;23;20006;-79
2022/04/30 12:54:12;;;;;;;7.43;4.65;;;;;;;;;;6245384;23;20000;-79
2022/04/30 12:56:39;;;;;;;4.55;4.15;;;;;;;;;;6246495;23;20054;-79
2022/04/30 12:59:05;;;;;;;5.05;4.15;;;;;;;;;;6246178;23;20000;-79
2022/04/30 13:01:33;;;;;;;4.95;4.13;;;;;;;;;;6245868;23;20004;-78
2022/04/30 13:03:59;;;;;;;5.40;4.25;;;;;;;;;;6246057;23;20012;-79
2022/04/30 13:06:25;;;;;;;8.93;4.78;;;;;;;;;;6246520;23;20007;-79
2022/04/30 13:14:20;;;;;;;;;;;;;;;;;;6246299;23;20510;-80
2022/04/30 13:16:48;;;;;;;5.65;5.05;;;;;;;;;;6245894;23;19930;-78
2022/04/30 13:19:15;;;;;;;4.40;4.00;;;;;;;;;;6245550;23;20008;-79
2022/04/30 13:21:41;;;;;;;5.07;4.20;;;;;;;;;;6245849;23;20000;-78
2022/04/30 13:24:08;;;;;;;5.00;4.50;;;;;;;;;;6245428;23;20004;-79
2022/04/30 13:26:34;;;;;;;6.28;4.47;;;;;;;;;;6245958;23;20435;-80
2022/04/30 13:29:00;;;;;;;5.00;4.43;;;;;;;;;;6245702;23;20004;-79
2022/04/30 13:31:26;;;;;;;5.63;4.63;;;;;;;;;;6245650;23;20043;-79
2022/04/30 13:33:52;;;;;;;5.63;4.38;;;;;;;;;;6245640;23;20424;-78
2022/04/30 13:36:20;;;;;;;5.32;4.15;;;;;;;;;;6245290;23;20012;-78
2022/04/30 13:38:46;;;;;;;7.00;3.90;;;;;;;;;;6245513;23;20305;-79
2022/04/30 13:41:12;;;;;;;9.38;7.55;;;;;;;;;;6244935;23;20068;-77
2022/04/30 13:43:38;;;;;;;5.28;4.68;;;;;;;;;;6245578;23;20028;-78
2022/04/30 13:46:04;;;;;;;4.95;3.65;;;;;;;;;;6245421;23;20071;-79
2022/04/30 13:48:31;;;;;;;4.13;3.70;;;;;;;;;;6245410;23;20000;-79
2022/04/30 13:51:01;;;;;;;10.43;5.97;;;;;;;;;;6245576;23;20083;-80
2022/04/30 13:53:27;;;;;;;6.10;5.05;;;;;;;;;;6245304;23;20391;-79
2022/04/30 13:55:54;;;;;;;7.10;5.60;;;;;;;;;;6218912;23;20020;-80
2022/04/30 13:58:20;;;;;;;7.20;6.10;;;;;;;;;;6245104;23;20069;-79
2022/04/30 14:00:46;;;;;;;8.15;6.40;;;;;;;;;;6245769;23;20078;-78
2022/04/30 14:03:13;;;;;;;35.95;14.25;;;;;;;;;;6245018;23;20031;-79
2022/04/30 14:05:39;;;;;;;19.08;14.63;;;;;;;;;;6218447;23;20043;-79
2022/04/30 14:08:05;;;;;;;8.10;6.38;;;;;;;;;;6245244;23;20332;-79
2022/04/30 14:10:31;;;;;;;5.40;4.20;;;;;;;;;;6245226;23;20007;-77
2022/04/30 14:15:43;;;;;;;5.40;4.65;;;;;;;;;;6245417;23;20035;-78
2022/04/30 14:20:53;;;;;;;;;;;;;;;;;;6245719;23;20015;-78
2022/04/30 14:23:21;;;;;;;5.38;4.07;;;;;;;;;;6245142;23;19899;-79
2022/04/30 14:25:48;;;;;;;6.00;4.75;;;;;;;;;;6244973;23;20000;-79
2022/04/30 14:28:15;;;;;;;4.75;4.35;;;;;;;;;;6245024;23;20486;-79
2022/04/30 14:30:42;;;;;;;5.70;4.97;;;;;;;;;;6218151;23;20023;-79
2022/04/30 14:33:09;;;;;;;17.13;12.75;;;;;;;;;;6244765;23;20094;-78
2022/04/30 14:35:38;;;;;;;8.18;6.28;;;;;;;;;;6218176;23;20049;-79
2022/04/30 14:38:15;;;;;;;10.30;4.50;;;;;;;;;;6244863;23;20368;-77
2022/04/30 14:40:43;;;;;;;5.00;4.50;;;;;;;;;;6218153;23;20011;-79
2022/04/30 14:43:15;;;;;;;5.57;4.22;;;;;;;;;;6245039;23;20006;-79
2022/04/30 14:45:43;;;;;;;5.43;4.38;;;;;;;;;;6244986;23;20420;-79
2022/04/30 14:48:11;;;;;;;5.20;4.60;;;;;;;;;;6218524;23;20083;-78
2022/04/30 14:50:39;;;;;;;7.25;4.03;;;;;;;;;;6244409;23;20000;-79
2022/04/30 14:53:05;;;;;;;5.40;4.22;;;;;;;;;;6217319;23;20061;-78
2022/04/30 14:55:32;;;;;;;5.70;4.03;;;;;;;;;;6244530;23;20044;-77
2022/04/30 14:57:58;;;;;;;5.80;4.05;;;;;;;;;;6217909;23;20008;-78
2022/04/30 15:00:26;;;;;;;6.22;4.70;;;;;;;;;;6217913;23;20004;-78
2022/04/30 15:02:52;;;;;;;5.40;3.83;;;;;;;;;;6244521;23;20378;-78
2022/04/30 15:05:19;;;;;;;6.47;4.88;;;;;;;;;;6244637;23;20033;-78
2022/04/30 15:07:45;;;;;;;6.75;5.25;;;;;;;;;;6244403;23;20001;-78
2022/04/30 15:10:11;;;;;;;6.93;4.57;;;;;;;;;;6244802;23;20001;-78
2022/04/30 15:12:37;;;;;;;4.90;4.18;;;;;;;;;;6244376;23;20004;-77
2022/04/30 15:15:04;;;;;;;6.57;4.38;;;;;;;;;;6244762;23;20039;-78
2022/04/30 15:17:30;;;;;;;5.38;4.43;;;;;;;;;;6244480;23;19992;-78
2022/04/30 15:19:57;;;;;;;6.60;4.70;;;;;;;;;;6244652;23;20328;-78
2022/04/30 15:22:23;;;;;;;4.35;3.95;;;;;;;;;;6244786;23;20004;-79
2022/04/30 15:24:49;;;;;;;5.15;4.20;;;;;;;;;;6244541;23;20313;-77
2022/04/30 15:27:16;;;;;;;6.65;4.45;;;;;;;;;;6244860;23;20004;-79
2022/04/30 15:29:42;;;;;;;6.28;4.40;;;;;;;;;;6244739;23;20000;-77
2022/04/30 15:32:10;;;;;;;6.53;4.75;;;;;;;;;;6217822;23;20055;-80
2022/04/30 15:34:37;;;;;;;7.82;5.78;;;;;;;;;;6244584;23;20004;-82
2022/04/30 15:37:18;;;;;;;7.40;4.72;;;;;;;;;;6245091;23;19996;-82
2022/04/30 15:39:44;;;;;;;6.15;4.68;;;;;;;;;;6218325;23;20031;-83
2022/04/30 15:42:12;;;;;;;6.38;4.47;;;;;;;;;;6218591;23;20470;-81
2022/04/30 15:44:39;;;;;;;6.18;4.28;;;;;;;;;;6244523;23;20000;-78
2022/04/30 15:52:34;;;;;;;;;;;;;;;;;;6245059;23;20015;-78
2022/04/30 15:55:01;;;;;;;6.53;4.90;;;;;;;;;;6244194;23;19912;-78